Terminal Aerodrome Forecast
Issued by NWS Melbourne, FL

Home | Current Version | Previous Version | Text Only | Print | Product List | Glossary On
Versions: 1 2 3 4 5 6 7 8 9 10 11 12 13 14 15
044
FTUS42 KMLB 231721
TAFVRB
TAF
KVRB 231721Z 2318/2418 07008KT P6SM SCT040
     FM231900 07012KT P6SM SCT045
     FM240000 04006KT P6SM SCT040=

USA.gov is the U.S. government's official web portal to all federal, state and local government web resources and services.